Challenge Delhalle

Les Foulées Des Flosses - Woluwe-Saint-Pierre (15.70 km)

dimanche 10 octobre 2021

Le Classement original se trouve sur : http://www.chronorace.be        
 
CHALLENGE DELHALLE
LES FOULÉES DES FLOSSES - WOLUWE-SAINT-PIERRE
DISTANCE : 15.71 km
dimanche 10 octobre 2021
 
Place Dos NOM Equipe Catégorie Pl/cat temps temps/km Vitesse
1 2680 ELMETOUI ABDESLAM ENJAMBEE SH 1 0:52:55 03:22 17.81
2 363 MARCHAL GILLES GAG-RUNATTITUDE SH 2 0:58:28 03:43 16.12
3 4 VANDERBECK YVES RONVAU V2 1 0:58:45 03:44 16.04
4 5741 DOS SANTOS WILLIAM   SH 3 0:59:57 03:49 15.72
5 556 RATINCKX JEAN PHILIPPE RIWA SH 4 1:00:44 03:52 15.52
6 2699 DELARGE MATHIEU JOGGANS SH 5 1:00:54 03:53 15.48
7 563 DE GREEF BENJAMIN ENJAMBÉE SH 6 1:00:57 03:53 15.46
8 5728 FADOUL TAHA   V1 1 1:01:09 03:54 15.41
9 868 VIAL BERTRAND MYSTERE SH 7 1:01:13 03:54 15.40
10 5732 BROSSARD ERIC   V2 2 1:02:20 03:58 15.12
11 2736 LACOMBE GUILHEM   SH 8 1:02:53 04:00 14.99
12 2733 SCHULLER GRÉGORY JOGGANS SH 9 1:02:56 04:00 14.98
13 5744 ROGER PAUL   SH 10 1:02:59 04:01 14.96
14 2841 RENARD PIERRE   V2 3 1:05:49 04:11 14.32
15 41 STOCKMANS FRANÇOIS   V2 4 1:05:49 04:11 14.32
16 2672 BROICH MARKUS SPORTIVAMENTE V1 2 1:07:13 04:17 14.02
17 241 COLLARD JOSÉ GAG V3 1 1:07:24 04:17 13.98
18 2721 COLLOT JO ANTILOB V2 5 1:08:17 04:21 13.80
19 2772 VAS ARTHUR   SH 11 1:08:22 04:21 13.79
20 2693 MARTIN RUBIO DAVID REANNERS V1 3 1:08:37 04:22 13.73
21 5737 DE RIDDER INO   V2 6 1:08:43 04:22 13.71
22 576 RIVEZ PIERRE LA THURE V3 2 1:08:58 04:23 13.67
23 2858 DELVAUX CLÉMENT CÉROUX RACING SH 12 1:09:00 04:24 13.66
24 583 VAN RAEMDONCK GILLES RIWA V2 7 1:09:23 04:25 13.58
25 67 RENCKENS AN SPORTIVAMENTE A1 1 1:09:38 04:26 13.53
26 2717 GERACI OLIVIER   SH 13 1:09:38 04:26 13.53
27 2796 MORAGON MARCO SPORTIVAMENTE SH 14 1:09:56 04:27 13.48
28 66 ROSSIGNOL OLIVIER SPORTIVAMENTE V2 8 1:09:58 04:27 13.47
29 5736 AMOUIR ABDEL HAKIM   V2 9 1:10:02 04:28 13.46
30 2720 PUTZEYS NICOLAS   SH 15 1:10:02 04:28 13.46
31 2716 DE JAEGER MARTIN   SH 16 1:10:03 04:28 13.45
32 165 WIART YVES LES PAHAUTS D'É V2 10 1:10:07 04:28 13.44
33 2714 DEVOS PASCAL   V2 11 1:10:12 04:28 13.43
34 2843 KLEMENCIC SCHMIDT NASTJA   A1 2 1:10:27 04:29 13.38
35 2741 FABER NATAN   SH 17 1:10:29 04:29 13.37
36 5748 REMY SEBASTIEN   V1 4 1:10:32 04:29 13.36
37 5762 DONCEEL LAURENT   SH 18 1:10:36 04:30 13.35
38 2746 SOHET MAXIME MYSTERES SH 19 1:10:40 04:30 13.34
39 68 MASURE ALEXANDRE RCNAMUR V2 12 1:10:43 04:30 13.33
40 2684 DI MEO MARIA RITA   A1 3 1:10:45 04:30 13.32
41 748 SALAZAR NOEL BXL RUN CREW V1 5 1:10:55 04:31 13.29
42 283 DI VINCENZO PASCAL RUNNIN'GREZ V2 13 1:11:14 04:32 13.23
43 2739 JANSSENS ERIC   V2 14 1:11:18 04:32 13.22
44 2773 MONTERO PIERRE AXA TEAM V2 15 1:11:21 04:33 13.21
45 2090 CHARLES CHRISTOPHE MYSTERE V1 6 1:11:27 04:33 13.19
46 2823 HENROT NOËL   V2 16 1:11:28 04:33 13.19
47 2849 DÉOME PIERRE   V1 7 1:11:34 04:33 13.17
48 492 DERAVET BERNARD LES PAHAUTS D'E V3 3 1:12:03 04:35 13.08
49 2785 MIRAGLIESE PIERRE   V1 8 1:12:05 04:35 13.07
50 5739 DANCETTE ELODIE   SD 1 1:12:22 04:36 13.02
51 129 MARTINEAU PHILIPPE GAG V1 9 1:12:24 04:37 13.02
52 641 BRUNIN CHRISTOPHE GAG V1 10 1:12:24 04:37 13.02
53 2728 LELIÈVRE THIERRY JOGGANS V1 11 1:12:28 04:37 13.01
54 72 CAWET DAPHNE MYSTERE A1 4 1:12:31 04:37 13.00
55 2692 HERMANGE CLAIRE REANNERS SD 2 1:12:51 04:38 12.94
56 2748 BEN SEDDIK SAID ANDERLECHT RUNN V2 17 1:12:58 04:39 12.92
57 2812 CÔME GERARD   SH 20 1:13:20 04:40 12.85
58 2695 XXX   xxx   1:13:44 04:42 12.78
59 2817 LYON LYNCH TANGUY   SH 21 1:13:48 04:42 12.77
60 2702 CREEMERS MATHIAS JOGGANS SH 22 1:14:00 04:43 12.74
61 2836 WANIN JOHAN COACHING ZONE SH 23 1:14:05 04:43 12.72
62 2691 MOERMAN JONAS   V1 12 1:14:05 04:43 12.72
63 2826 MAHAUX ANNE-CHRISTINE   A1 5 1:14:24 04:44 12.67
64 294 HASSOUTE EL MOUSTAFA MYSTERE V2 18 1:14:27 04:44 12.66
65 2713 VAN MUIJEN MIRKO SPORTIVAMENTE V1 13 1:14:39 04:45 12.62
66 5738 GERARD ALAIN   V2 19 1:14:40 04:45 12.62
67 2742 FRANTZEN JOEL   V2 20 1:14:44 04:45 12.61
68 2830 MORAL SIMON   SH 24 1:14:49 04:46 12.60
69 626 LAMBERT CARL GAG V2 21 1:14:59 04:46 12.57
70 404 TILBURGS FRANK AVN V2 22 1:14:59 04:46 12.57
71 2710 SCHOCKAERT HEDWIG SPRIRIDON AALST V3 4 1:15:02 04:47 12.56
72 2782 GAUSSET OLIVIER AXA RUNNING TEA V2 23 1:15:03 04:47 12.56
73 2722 KENNIS MARC JOGGANS V2 24 1:15:03 04:47 12.56
74 425 DE GRAVE OLIVIER MYSTERE V2 25 1:15:05 04:47 12.55
75 2690 RASQUINET LAURENT   V2 26 1:15:12 04:47 12.53
76 819 PIRSON FLORENCE   A1 6 1:15:14 04:47 12.53
77 2783 BARATA HORACIO KURISTO V2 27 1:15:20 04:48 12.51
78 2706 MOUSSALLEM FADI   SH 25 1:15:23 04:48 12.50
79 2667 PAELEMAN PHILIPPE   V2 28 1:15:23 04:48 12.50
80 5740 ALEXANDRE PHILIPPE   V1 14 1:16:01 04:50 12.40
81 2732 DEWULF GUILLAUME   SH 26 1:16:02 04:50 12.40
82 779 LAUREYS PIERRE ANTILOB V3 5 1:16:15 04:51 12.36
83 2768 DELFOSSE BENONI   V1 15 1:16:18 04:51 12.35
84 2698 MOULAERT GAÉTANE JOGGANS SD 3 1:16:21 04:52 12.34
85 2689 CORNET ROMAIN   SH 27 1:16:30 04:52 12.32
86 2810 SZOSTKO BARTEK   V1 16 1:16:42 04:53 12.29
87 805 MATHELART JULIEN   SH 28 1:16:43 04:53 12.28
88 2809 GUIGGI LUCA   V1 17 1:16:43 04:53 12.28
89 5753 HERZL PIERRE-YVES   V2 29 1:16:46 04:53 12.28
90 984 BLONDEAUX YANNICK   V1 18 1:16:47 04:53 12.27
91 731 DEPOUILLE HENRI-FRANÇOIS MYSTERE V1 19 1:16:56 04:54 12.25
92 5733 ABRAHAM YANN   V1 20 1:16:56 04:54 12.25
93 841 SALVATO DOMENICO MYSTERE V2 30 1:17:10 04:55 12.21
94 2747 TAMRI HASSAN   V2 31 1:17:24 04:56 12.18
95 2842 LEJEUNE LAURENT   V1 21 1:17:26 04:56 12.17
96 2725 WATHOUR PIERRE-YVES   SH 29 1:17:29 04:56 12.16
97 2686 VERONA FRANCESCO SPORTIVAMENTE V1 22 1:17:39 04:57 12.14
98 2705 GONZALEZ NASTASIA SPORTIVAMENTE SD 4 1:18:04 04:58 12.07
99 2834 MUELLER MARKUS   V2 32 1:18:21 04:59 12.03
100 2800 MARCEL MATHIEU   SH 30 1:18:30 05:00 12.01
101 2771 GILLAIN ALAIN AXA TEAM V2 33 1:18:55 05:01 11.94
102 815 DE PRINS JEAN-FRANÇOIS   SH 31 1:19:11 05:02 11.90
103 2852 MORENO OLIVIER   V2 34 1:19:14 05:03 11.89
104 2797 FRANSSENS MATTHIAS   V1 23 1:19:17 05:03 11.89
105 2752 SAUME OLIVIER TRAINING7 RIWA V1 24 1:19:19 05:03 11.88
106 58 HENRY ANDRE RCB V3 6 1:19:25 05:03 11.87
107 2697 POLLART JEAN-FRANÇOIS GAG V2 35 1:19:27 05:03 11.86
108 2724 GOMES FERREIRA TERESA MYSTERE A1 7 1:19:42 05:04 11.82
109 2762 DELCHARLERIE PASCAL   V1 25 1:19:44 05:05 11.82
110 2703 DEBELLE FRÉDÉRIC JOGGANS V2 36 1:19:54 05:05 11.80
111 2780 HAERTWICH PETER   V3 7 1:19:59 05:06 11.78
112 2681 BRANGER FREDERIC COACHING ZONE T V1 26 1:20:06 05:06 11.77
113 880 GILAIN MORGAN   SD 5 1:20:07 05:06 11.76
114 885 BLAMPAIN RONALD RCNAMUR V1 27 1:20:07 05:06 11.76
115 2750 PIERRE LIONEL LDLV V3 8 1:20:09 05:06 11.76
116 34 BINET SYLVAIN OZOIR TRIATHLON V3 9 1:20:11 05:06 11.75
117 2819 MASSONNET FRANÇOIS   SH 32 1:20:14 05:06 11.75
118 685 LETELLIER JEAN-LUC MYSTERE V2 37 1:20:51 05:09 11.66
119 899 PISCART FRANCOISE MYSTERE A2 1 1:20:51 05:09 11.66
120 2666 GRANJON GILBERT   V2 38 1:20:56 05:09 11.64
121 2723 JACQUEMIN PATRICK   V2 39 1:21:05 05:10 11.62
122 5743 DEFALQUE ALBAN   V2 40 1:21:09 05:10 11.61
123 494 MATHY JEAN-LUC RCNAMUR V3 10 1:21:10 05:10 11.61
124 2712 MOUNTFORD COLIN   V2 41 1:21:26 05:11 11.57
125 194 AUBERT SERGE CHUDONDORGANES V3 11 1:21:32 05:11 11.56
126 5745 MORO CAMDO RAFAEL   V2 42 1:21:37 05:12 11.55
127 2802 NDONGSON ALAIN   V1 28 1:21:37 05:12 11.55
128 2833 OVERTUS MARIE RIB SD 6 1:21:45 05:12 11.53
129 395 FOHAL JEAN-LUC ETCHIEVRES V2 43 1:21:49 05:13 11.52
130 693 CHAUVIER JEAN-PIERRE   V3 12 1:21:55 05:13 11.50
131 27 CANIVET ROLAND BOUFFIOLS V4 1 1:21:58 05:13 11.50
132 2668 CAVALERI BALDO SPORTIVAMENTE V3 13 1:22:04 05:13 11.48
133 2688 WABLE EUGÉNIE   SD 7 1:22:05 05:14 11.48
134 2669 VANDERCLAUSEN BAPTISTE GAG SH 33 1:22:39 05:16 11.40
135 2760 LAMOTTE JONATHAN   V1 29 1:22:39 05:16 11.40
136 2798 DELVAUX YVES   V3 14 1:22:43 05:16 11.39
137 2806 DEGROOTE NICOLAAS NAC V1 30 1:22:55 05:17 11.37
138 400 BELOT ALAIN GAG V2 44 1:23:02 05:17 11.35
139 2759 DELANGEN NICOLAS   SH 34 1:23:09 05:18 11.33
140 2758 DEJAIFFE VINCENT   V1 31 1:23:09 05:18 11.33
141 5746 GUICHARD MARIE   SD 8 1:23:11 05:18 11.33
142 2744 VERSTUYFT CORALIE   SD 9 1:23:12 05:18 11.33
143 2745 VERSRUYFT GUY   V2 45 1:23:13 05:18 11.33
144 2774 VERHAEGHE XAVIER   V2 46 1:23:32 05:19 11.28
145 694 BAIJOT REGINE JCCS A2 2 1:23:36 05:19 11.27
146 61 KETELE CORALIE GAG SD 10 1:23:53 05:20 11.24
147 357 FERAUCHE JEAN-MARIE   V4 2 1:23:56 05:21 11.23
148 623 PISCART PIERRE FORESTIERE V3 15 1:24:04 05:21 11.21
149 537 ROBILLARD THIBERT RC NAMUR V3 16 1:24:05 05:21 11.21
150 2761 ROELANDT MATHIEU   SH 35 1:24:11 05:22 11.20
151 2763 DAUTCOURT CLAIRE   SD 11 1:24:11 05:22 11.20
152 2719 SAGAERT DENIS   V2 47 1:24:13 05:22 11.19
153 2777 VAN NOPPEN ALEX   V1 32 1:24:15 05:22 11.19
154 2820 DUFAYS NICOLAS   SH 36 1:24:21 05:22 11.17
155 292 BOCHENKOV YURY MYSTERE SH 37 1:24:28 05:23 11.16
156 2675 ORTENZI ERMANNO   V2 48 1:24:29 05:23 11.16
157 5727 VERHEIRSTRAETEN JOHNNY   V2 49 1:24:40 05:23 11.13
158 5764 DEPENSAZ VANESSA   SD 12 1:24:46 05:24 11.12
159 725 TROUPIN CECILE JC HSH A1 8 1:24:46 05:24 11.12
160 2767 BOONEN CHRIS AVN V2 50 1:25:00 05:25 11.09
161 2857 MUSEUR CHRISTOPHE COACHING ZONE SH 38 1:25:06 05:25 11.07
162 2778 VAN ASBROECK AURÉLIE   A1 9 1:25:11 05:25 11.06
163 2685 VANDERGEETEN JEOFFREY   V1 33 1:25:15 05:26 11.06
164 406 DELATTE OLIVIER MYSTERE V2 51 1:25:20 05:26 11.04
165 2694 MIDDEL INE   A3 1 1:25:22 05:26 11.04
166 2704 DE WALQUE GRÉGOIRE   V1 34 1:25:38 05:27 11.01
167 2679 SCOUPPE GERY   V2 52 1:25:39 05:27 11.00
168 2687 SIRAGUSA SALVATORE RCABW V1 35 1:25:41 05:27 11.00
169 2708 LESNE DIDIER LDLV V2 53 1:25:44 05:27 10.99
170 695 DE DAPPER DAVID MYSTERE V1 36 1:25:44 05:27 10.99
171 2831 WACKER HENDRIK   V2 54 1:25:52 05:28 10.98
172 2700 THEUNISSEN MELANIE   SD 13 1:26:03 05:29 10.95
173 2089 COLOMBO SERGIO RC NAMUR V3 17 1:26:03 05:29 10.95
174 2837 BUCKEN GAETAN   SH 39 1:26:04 05:29 10.95
175 115 MARAFKO ISABELLE GAG A2 3 1:26:20 05:30 10.92
176 2835 NOBELS MAXENCE   SH 40 1:26:26 05:30 10.90
177 2786 DE KUYSSCHER LYDIA BIOTRAIL A1 10 1:26:29 05:30 10.90
178 2769 BOMBEECK YSALINE CEPAL SD 14 1:26:31 05:30 10.89
179 964 HENRY MANON GAG SD 15 1:26:36 05:31 10.88
180 5757 NOWACKA AGATA   A1 11 1:26:37 05:31 10.88
181 5758 PAIRONA MARCO   V1 37 1:26:37 05:31 10.88
182 2814 VERNIER LAURENT   V1 38 1:26:40 05:31 10.87
183 302 MUNAUT CARINE   A2 4 1:26:51 05:32 10.85
184 2756 OLIVIER DAVID   V1 39 1:27:10 05:33 10.81
185 513 DUFAUX RAPHAEL JCPMF FLV V2 55 1:27:14 05:33 10.80
186 992 LETHÉ VINCENT RONVAU V3 18 1:27:20 05:34 10.79
187 2740 LACOMBE DENIS   V2 56 1:27:24 05:34 10.78
188 217 HENNE PATRICE JCHSH V3 19 1:27:25 05:34 10.78
189 2815 BLEUS XAVIER KURISTO V1 40 1:27:43 05:35 10.74
190 2818 RUTTIENS ANTOINE   V1 41 1:27:43 05:35 10.74
191 2827 ORTENZI GIANNI   SH 41 1:27:53 05:36 10.72
192 449 MARCHAL PATRICK GAG V3 20 1:28:02 05:36 10.71
193 808 CHABEAU VINCIANE ANTILOB A3 2 1:28:06 05:37 10.70
194 2709 ROMANOWSKA MARGARETH   A1 12 1:28:14 05:37 10.68
195 2734 LAIR BENOIT RUN IN BRUSSELS V1 42 1:28:23 05:38 10.66
196 5747 COURTEQUISSE YVES   V3 21 1:28:27 05:38 10.66
197 2678 VAN CRAENENBROECK PASCAL   V2 57 1:28:28 05:38 10.65
198 5761 THOMA ADRIEN   JH 1 1:28:35 05:38 10.64
199 5735 CHACHOUA ABDELMALEK   V2 58 1:28:45 05:39 10.62
200 2808 MARCHAND ETIENNE RCB V4 3 1:28:46 05:39 10.62
201 2828 THOMA MAXIMILIEN   V1 43 1:28:52 05:39 10.61
202 2696 VANVOLSEM FREDERIC   V2 59 1:28:54 05:40 10.60
203 2718 HEMERYCK PIERRE   V3 22 1:28:57 05:40 10.60
204 2851 PETIT ANNE-SOPHIE   SD 16 1:28:59 05:40 10.59
205 2665 LECERF JEAN-LUC JOGGANS V3 23 1:28:59 05:40 10.59
206 2751 VANNIEUWENBORGH FRANCOISE   A2 5 1:29:12 05:41 10.57
207 216 LANCKRIET ALEX ESM V2 60 1:29:13 05:41 10.56
208 2847 LE MOINE MARIE PIZZE VOLANTES SD 17 1:29:16 05:41 10.56
209 2770 BOMBEECK AURIANE   SD 18 1:29:30 05:42 10.53
210 2757 BUX ANTONIO   V2 61 1:30:00 05:44 10.47
211 2776 BALLANT DENIS   V2 62 1:30:08 05:44 10.46
212 972 STIENSMA ERIC WPRC V3 24 1:30:30 05:46 10.41
213 2856 SINIHA AIMÉ   V2 63 1:30:55 05:47 10.37
214 388 BUCHET FREDERIC MYSTERE V1 44 1:30:59 05:48 10.36
215 2707 BOOMBA JIM   V1 45 1:31:02 05:48 10.35
216 546 LECLERCQ PATRICK GAG V2 64 1:31:05 05:48 10.35
217 514 GREVISSE DAVID RONVAU V1 46 1:31:17 05:49 10.32
218 747 BIDAINE LUC WPRC V3 25 1:31:26 05:49 10.31
219 5755 GOOSENS BRIGITTE   A2 6 1:31:29 05:49 10.30
220 5756 REMAELE ETIENNE   V2 65 1:31:29 05:49 10.30
221 218 ALEXANDRE FRANCOISE MYSTERE A3 3 1:31:40 05:50 10.28
222 464 VIDICK JEAN-LUC MYSTERE V3 26 1:31:41 05:50 10.28
223 5734 LEGAT VINCENT   V2 66 1:31:46 05:51 10.27
224 5760 SACRÉ JEAN-FRANCOIS   V2 67 1:31:55 05:51 10.25
225 2735 JUDAK INGRID   A1 13 1:31:59 05:51 10.25
226 864 MEHU SANDRA MYSTERE A2 7 1:31:59 05:51 10.25
227 2788 HERION ERIC   V1 47 1:32:06 05:52 10.23
228 136 HAELTERMAN FLORENCE SPTWAVRE A1 14 1:32:13 05:52 10.22
229 83 PEETERS QUENTIN SPTWAVRE V1 48 1:32:14 05:52 10.22
230 5763 SPITZMESSER STEFAN   V2 68 1:32:44 05:54 10.16
231 940 MAAS STIJN   V1 49 1:32:52 05:55 10.15
232 2832 JORTAY DOMINIQUE   A2 8 1:33:14 05:56 10.11
233 2850 LAMARRE BLANDINE   A1 15 1:33:24 05:57 10.09
234 850 PENSEZ PIERRE FORESTIERE V2 69 1:33:30 05:57 10.08
235 2737 TAUPIN PAULINE   SD 19 1:33:39 05:58 10.06
236 144 CORBIAUX CHRISTOPHE RCNAMUR V1 50 1:34:04 05:59 10.02
237 2854 LAURENT FREDERIC CEPAL V2 70 1:34:09 06:00 10.01
238 965 LACKNER SANDRINE WPRC A1 16 1:34:47 06:02 9.94
239 2859 SCHRÖTER TANIA   A1 17 1:35:01 06:03 9.92
240 2804 DELORME JEAN-BAPTISTE   SH 42 1:35:10 06:04 9.90
241 2844 CUGNON EMMANUELLE   A2 9 1:35:17 06:04 9.89
242 127 GRANDMONT ANDRÉ   V3 27 1:35:18 06:04 9.89
243 5754 PHILIPPOT YOANN   SH 43 1:35:31 06:05 9.87
244 2682 RENNESON BERNARD   V4 4 1:35:35 06:05 9.86
245 2754 VOS BÉNÉDICTE   A1 18 1:35:44 06:06 9.84
246 176 VERPLAETSE JOHANNA MYSTERE A2 10 1:36:08 06:07 9.80
247 861 MALIKIAN MARIE MYSTERE A2 11 1:36:18 06:08 9.79
248 2775 FARNIER MARGUERITE AXA RUNNING TEA A2 12 1:36:56 06:10 9.72
249 444 VAN GENECHTEN SERGE CEPAL V3 28 1:36:56 06:10 9.72
250 2792 ROBERT CHANTAL AXA A2 13 1:36:57 06:10 9.72
251 5765 D'HAEMER SOPHIE   SD 20 1:37:04 06:11 9.71
252 2821 TILMANT BENOIT KURISTO V2 71 1:37:06 06:11 9.71
253 124 LE CHARLIER BAUDOUIN   V4 5 1:37:49 06:14 9.63
254 2727 LECOCQ MICHELE   A2 14 1:37:49 06:14 9.63
255 5742 VAN HECKE GEORGES   V3 29 1:37:51 06:14 9.63
256 2801 ESSER NATHALIE ART RUNNING TEA A2 15 1:37:59 06:14 9.62
257 2793 COUDRAY RACHEL AXA RUNNING A1 19 1:37:59 06:14 9.62
258 2671 PECHER AURÉLIE   SD 21 1:38:13 06:15 9.60
259 543 LAFORGE FREDERIC   V1 51 1:38:38 06:17 9.56
260 2711 VANOIRBECK NATHALIE   A2 16 1:38:38 06:17 9.56
261 200 CORNET ANNE GAG A2 17 1:38:42 06:17 9.55
262 575 VANWEDDINGEN ANNE MYSTERE A2 18 1:38:42 06:17 9.55
263 160 RONDOU PHILIPPE NAC V2 72 1:38:55 06:18 9.53
264 2764 BEAUDUIN BENEDICTE   A2 19 1:38:58 06:18 9.52
265 2789 DEMARET NATHALIE NAC NIVELLES A1 20 1:39:01 06:18 9.52
266 154 LEONE FRANCESCO   V2 73 1:39:14 06:19 9.50
267 2799 PEIGNEUR ROXANE   A1 21 1:39:24 06:20 9.48
268 2853 MAMBU SERGE   V2 74 1:39:34 06:20 9.47
269 923 CEULEMANS NICOLAS ANTILOB V2 75 1:39:45 06:21 9.45
270 2805 VANDENBUSSCHE INGEBORG   A1 22 1:39:51 06:21 9.44
271 2677 VANHEUKEN VALENTINE   SD 22 1:40:15 06:23 9.40
272 2753 LEWKOWICZ EVELYN   A2 20 1:40:30 06:24 9.38
273 5729 PLECKSPAEN PHILIPPE   V3 30 1:40:46 06:25 9.35
274 2670 NEDERLANDT FRANCOIS   V1 52 1:41:02 06:26 9.33
275 2813 OSOWIECKA MAGDALENA   SD 23 1:41:11 06:27 9.31
276 2807 CARINI CAMILLA   SD 24 1:41:23 06:27 9.30
277 2848 GYSENS JULIE   A1 23 1:41:31 06:28 9.28
278 2855 O'TOOLE MARTIN   V1 53 1:41:53 06:29 9.25
279 2784 GORI LEONARDO   SH 44 1:41:56 06:29 9.25
280 932 VASCONCELLOS CLAUDIA RCB A3 4 1:42:37 06:32 9.18
281 2822 BINGEN GUY   V3 31 1:43:02 06:34 9.15
282 755 VAN HEULENBERGHE FRANK   V3 32 1:43:07 06:34 9.14
283 5726 VANDERVOORT MICHELINE   A3 5 1:43:11 06:34 9.13
284 2824 DE MEESTER THIERRY   V2 76 1:43:11 06:34 9.13
285 5766 PIERRET SYLVIE   SD 25 1:43:18 06:35 9.12
286 2683 PLASMAN CHRISTIAN JOGGANS V2 77 1:43:47 06:36 9.08
287 2838 SEUTIN DOMINIQUE   A1 24 1:44:04 06:38 9.06
288 2839 HUON PIERRE   V4 6 1:44:04 06:38 9.06
289 2803 MOISES BURGOS CDE KALAMOS V1 54 1:45:24 06:43 8.94
290 2729 BURTON MADELEINE   SD 26 1:46:18 06:46 8.87
291 2731 WILLEMS MARIE-FRANCE   A2 21 1:46:29 06:47 8.85
292 2726 VERHAS NANCY JOGGANS A1 25 1:46:29 06:47 8.85
293 2766 PRESA OLGA   A3 6 1:46:33 06:47 8.85
294 2765 BAUDOT PASCALE   A2 22 1:46:33 06:47 8.85
295 2794 MANSY MICHÈLE AXA RUNNING TEA A2 23 1:47:22 06:50 8.78
296 2795 DUMONT PASCAL   V2 78 1:47:23 06:50 8.78
297 793 VANDECANDELAERE SOPHIE GAG A1 26 1:48:01 06:53 8.73
298 2673 HEYMANS JULIE   A1 27 1:48:01 06:53 8.73
299 2701 MOENS MAGALIE CEPAL SD 27 1:48:13 06:53 8.71
300 2738 HARDY CÉLINE GAG A1 28 1:48:26 06:54 8.69
301 5759 HISSEN HOLGEN   V2 79 1:48:29 06:54 8.69
302 479 WOLFF LAURENCE GAG A2 24 1:48:36 06:55 8.68
303 2674 COLSON BENEDICTE   A1 29 1:48:41 06:55 8.67
304 2816 ROSSILLON AUDREY   A1 30 1:48:46 06:55 8.66
305 2829 MORAL MANUEL   V3 33 1:48:46 06:55 8.66
306 2781 DE BOÉ ANNE WPRC A3 7 1:48:59 06:56 8.65
307 2840 NOWAK BÉRENGÈRE WPRC A1 31 1:49:00 06:56 8.65
308 489 HELEVEN VERONIQUE GAG A2 25 1:50:21 07:02 8.54
309 662 LEGRAND KARINE   A2 26 1:50:21 07:02 8.54
310 772 GIETS CINDY GAG A1 32 1:50:30 07:02 8.53
311 655 CHARLES PATRICIA BIOTRAIL A2 27 1:50:36 07:02 8.52
312 2743 VERKINDERE ALAIN   V4 7 1:50:54 07:04 8.50
313 2676 SIMONART VÉRONIQUE GAG A2 28 1:52:01 07:08 8.41
314 2749 LEJEUNE VALÉRIE   A2 29 1:52:01 07:08 8.41
315 522 BERTRAND YVES GAG GEMBLOUX V2 80 1:52:05 07:08 8.41
316 2779 DE COCK VALÉRIE GAG A1 33 1:52:33 07:10 8.37
317 5731 CLEVE MICHAËL   V1 55 1:53:38 07:14 8.29
318 597 STEENO AURELIE GAG A1 34 1:53:39 07:14 8.29
319 2787 LACROIX ERIC   V2 81 1:54:37 07:18 8.22
320 2811 LEPIECE SYLVIE   A2 30 1:55:34 07:21 8.15
321 2755 JANSSENS MIREILLE   A2 31 1:55:35 07:22 8.15
322 2825 SMETS KARINE   A1 35 1:56:18 07:24 8.10
323 2846 CLAERHOUT FREDERIC   V2 82 1:56:38 07:26 8.08
324 2845 NOTEBAERT DELPHINE   A1 36 1:56:40 07:26 8.08
325 2715 CHAMPENOIS MARC   V3 34 1:57:29 07:29 8.02
326 2730 PEIJMANS DAVID   V1 56 1:58:11 07:31 7.97
327 5750 GOFFAUX MARIE-LAURE   A1 37 2:02:58 07:50 7.66
328 8 ANTOINE ALAIN RCNAMUR V3 35 2:03:12 07:51 7.65
329 5749 SCUFLAIRE ERICA   A2 32 2:05:02 07:58 7.54
330 5751 LESS SORAYA   A2 33 2:05:02 07:58 7.54
331 2791 ALBERT TRISTAN   JH 2 2:13:24 08:30 7.06
332 2790 XXX   xxx   2:13:31 08:30 7.06
333 5730 WAUCAMPT REGGIE   V4 8 2:23:25 09:08 6.57
                 
Nos dernières videos